D/T METAR WX W/DIR W/SPE G/SPE TEMP DEWP
23/05/19 13:50 EGPC 231250Z 30026KT 2500 -RADZ BKN004 09/08 Q1007 -RA -DZ WNW (300°) 29.9mph 9°C 8°C
23/05/19 13:20 EGPC 231220Z 29027G37KT 8000 -RA BKN005 09/08 Q1007 -RA WNW (290°) 31.1mph 42.6mph 9°C 8°C
23/05/19 12:50 EGPC 231150Z 30027KT 8000 -RA SCT006 BKN011 09/08 Q1007 -RA WNW (300°) 31.1mph 9°C 8°C
23/05/19 12:20 EGPC 231120Z 30026G37KT 6000 -RADZ BKN004 09/08 Q1007 REDZ -RA -DZ WNW (300°) 29.9mph 42.6mph 9°C 8°C
23/05/19 11:50 EGPC 231050Z 30027KT 3000 DZ BKN004 09/08 Q1007 DZ WNW (300°) 31.1mph 9°C 8°C
23/05/19 11:20 EGPC 231020Z 29026G36KT 8000 -DZ BKN005 09/08 Q1007 -DZ WNW (290°) 29.9mph 41.4mph 9°C 8°C
23/05/19 10:50 EGPC 230950Z 30024KT 8000 -DZ BKN005 09/08 Q1007 -DZ WNW (300°) 27.6mph 9°C 8°C
23/05/19 10:20 EGPC 230920Z 30021KT 7000 -RADZ BKN004 09/09 Q1007 -RA -DZ WNW (300°) 24.2mph 9°C 9°C
23/05/19 09:50 EGPC 230850Z 29017KT 5000 -RADZ BKN004 09/08 Q1007 -RA -DZ WNW (290°) 19.6mph 9°C 8°C
23/05/19 09:20 EGPC 230820Z 30018KT 6000 -RADZ BKN004 09/08 Q1008 -RA -DZ WNW (300°) 20.7mph 9°C 8°C
23/05/19 08:50 EGPC 230750Z 31016KT 6000 -RADZ BKN004 08/08 Q1008 -RA -DZ NW (310°) 18.4mph 8°C 8°C
23/05/19 08:20 EGPC 230720Z 30016KT 8000 -RADZ BKN004 08/08 Q1008 -RA -DZ WNW (300°) 18.4mph 8°C 8°C
23/05/19 07:50 EGPC 230650Z 31017KT 9999 FEW008 BKN026 08/07 Q1008 NW (310°) 19.6mph 8°C 7°C
23/05/19 07:20 EGPC 230620Z 30015KT 9999 FEW008 BKN026 08/07 Q1008 WNW (300°) 17.3mph 8°C 7°C
23/05/19 06:50 EGPC 230550Z 30016KT 9999 FEW008 BKN026 08/07 Q1008 WNW (300°) 18.4mph 8°C 7°C
23/05/19 06:20 EGPC 230520Z AUTO 30017KT 8000 -RA BKN005/// BKN024/// BKN033/// 08/07 Q1008 -RA WNW (300°) 19.6mph 8°C 7°C
23/05/19 05:50 EGPC 230450Z AUTO 30017KT 4100 -DZ BKN004/// BKN008/// OVC030/// 08/07 Q1008 -DZ WNW (300°) 19.6mph 8°C 7°C
23/05/19 05:20 EGPC 230420Z AUTO 31013KT 9999 -RA BKN006/// OVC015/// 08/07 Q1009 -RA NW (310°) 15.0mph 8°C 7°C
23/05/19 04:50 EGPC 230350Z AUTO 30015KT 9999 -RA BKN009/// OVC030/// 08/07 Q1008 -RA WNW (300°) 17.3mph 8°C 7°C
23/05/19 04:20 EGPC 230320Z AUTO 30016KT 9999 SCT008/// BKN027/// OVC043/// 08/07 Q1008 WNW (300°) 18.4mph 8°C 7°C
23/05/19 03:50 EGPC 230250Z AUTO 30016KT 9999 -RA BKN008/// OVC024/// 08/07 Q1009 -RA WNW (300°) 18.4mph 8°C 7°C
23/05/19 03:20 EGPC 230220Z AUTO 30016KT 9999 -RA BKN007/// OVC023/// 08/07 Q1009 -RA WNW (300°) 18.4mph 8°C 7°C
23/05/19 02:50 EGPC 230150Z AUTO 31015KT 9999 -RA BKN008/// OVC022/// 08/07 Q1009 -RA NW (310°) 17.3mph 8°C 7°C
23/05/19 02:20 EGPC 230120Z AUTO 31018KT 9999 -RA SCT025/// BKN033/// 08/07 Q1009 -RA NW (310°) 20.7mph 8°C 7°C
23/05/19 01:50 EGPC 230050Z AUTO 30019KT 9999 -RA FEW010/// SCT043/// 08/07 Q1009 -RA WNW (300°) 21.9mph 8°C 7°C
23/05/19 01:20 EGPC 230020Z AUTO 30018KT 9999 -RA FEW018/// SCT022/// BKN043/// 08/07 Q1009 -RA WNW (300°) 20.7mph 8°C 7°C
23/05/19 00:50 EGPC 222350Z AUTO 31018KT 9999 -RA FEW008/// BKN017/// 08/08 Q1010 -RA NW (310°) 20.7mph 8°C 8°C
23/05/19 00:20 EGPC 222320Z AUTO 31018KT 9999 -RA BKN008/// BKN014/// OVC043/// 08/08 Q1010 -RA NW (310°) 20.7mph 8°C 8°C
22/05/19 23:50 EGPC 222250Z AUTO 31016KT 9999 -RA BKN004/// OVC027/// 08/08 Q1010 -RA NW (310°) 18.4mph 8°C 8°C
22/05/19 23:20 EGPC 222220Z AUTO 31015KT 9999 -RA OVC004/// 08/08 Q1010 -RA NW (310°) 17.3mph 8°C 8°C
22/05/19 22:50 EGPC 222150Z AUTO 31013KT 9999 -RA BKN006/// OVC034/// 08/08 Q1011 -RA NW (310°) 15.0mph 8°C 8°C
22/05/19 22:20 EGPC 222120Z AUTO 31015KT 9999 -RA BKN005/// OVC023/// 08/08 Q1011 REDZ -RA NW (310°) 17.3mph 8°C 8°C
22/05/19 21:50 EGPC 222050Z AUTO 32014KT 3300 DZ BKN004/// OVC033/// 08/08 Q1011 RERA DZ NW (320°) 16.1mph 8°C 8°C
22/05/19 21:20 EGPC 222020Z AUTO 32015KT 6000 -RA BKN004/// OVC040/// 08/08 Q1011 -RA NW (320°) 17.3mph 8°C 8°C
22/05/19 20:50 EGPC 221950Z 32014KT 8000 BKN005 09/08 Q1011 NW (320°) 16.1mph 9°C 8°C
22/05/19 20:20 EGPC 221920Z 32015KT 8000 BKN005 09/08 Q1011 NW (320°) 17.3mph 9°C 8°C
22/05/19 19:50 EGPC 221850Z 32016KT 8000 -RA BKN004 09/09 Q1011 -RA NW (320°) 18.4mph 9°C 9°C
22/05/19 19:20 EGPC 221820Z 32015KT 3000 -RADZ BKN004 09/08 Q1011 -RA -DZ NW (320°) 17.3mph 9°C 8°C
22/05/19 18:50 EGPC 221750Z 32017KT 4000 -RA BKN005 09/09 Q1011 -RA NW (320°) 19.6mph 9°C 9°C
22/05/19 18:20 EGPC 221720Z 32016KT 9000 -RA BKN005 09/09 Q1011 -RA NW (320°) 18.4mph 9°C 9°C
22/05/19 17:50 EGPC 221650Z 32016KT 8000 -RA BKN005 09/09 Q1011 -RA NW (320°) 18.4mph 9°C 9°C
22/05/19 17:20 EGPC 221620Z 32017KT 9999 -DZ BKN009 09/09 Q1011 -DZ NW (320°) 19.6mph 9°C 9°C
22/05/19 16:50 EGPC 221550Z 32016KT 5000 -RADZ BKN006 09/09 Q1011 -RA -DZ NW (320°) 18.4mph 9°C 9°C
22/05/19 16:20 EGPC 221520Z 32017KT 5000 -RADZ BKN006 10/09 Q1012 -RA -DZ NW (320°) 19.6mph 10°C 9°C
22/05/19 15:50 EGPC 221450Z 32018KT 5000 -RA BKN004 10/09 Q1012 -RA NW (320°) 20.7mph 10°C 9°C
22/05/19 15:20 EGPC 221420Z 32016KT 5000 -RADZ BKN004 10/09 Q1012 -RA -DZ NW (320°) 18.4mph 10°C 9°C
22/05/19 14:50 EGPC 221350Z 32018KT 4000 -RADZ BKN003 10/09 Q1012 -RA -DZ NW (320°) 20.7mph 10°C 9°C
22/05/19 14:20 EGPC 221320Z 31017KT 3000 -RADZ SCT003 BKN008 10/09 Q1012 -RA -DZ NW (310°) 19.6mph 10°C 9°C